Terminal Aerodrome Forecast
Issued by NWS

Home | Current Version | Previous Version | Text Only | Print | Product List | Glossary On
Versions: 1 2 3 4 5 6 7 8 9 10 11 12 13 14 15 16 17 18 19 20 21 22 23 24 25 26 27 28
000
FTUS41 KPHI 200820 AAA
TAFMIV
TAF AMD
KMIV 200820Z 2008/2106 35008KT P6SM OVC025
     FM201200 33010KT P6SM SCT035
     FM201400 33012G20KT P6SM SCT050
     FM201900 33010G18KT P6SM BKN050
     FM210100 33006KT P6SM SCT080=

USA.gov is the U.S. government's official web portal to all federal, state and local government web resources and services.